sensor_id;sensor_type;location;lat;lon;timestamp;P1;durP1;ratioP1;P2;durP2;ratioP2
17197;SDS011;8715;51.010;6.812;2022-10-16T00:01:36;496.88;;;477.63;;
17197;SDS011;8715;51.010;6.812;2022-10-16T00:04:12;476.25;;;457.40;;
17197;SDS011;8715;51.010;6.812;2022-10-16T00:06:38;487.55;;;468.15;;
17197;SDS011;8715;51.010;6.812;2022-10-16T00:09:03;485.00;;;465.83;;
17197;SDS011;8715;51.010;6.812;2022-10-16T00:11:30;476.52;;;457.48;;
17197;SDS011;8715;51.010;6.812;2022-10-16T00:14:02;472.85;;;453.75;;
17197;SDS011;8715;51.010;6.812;2022-10-16T00:18:56;480.70;;;461.63;;
17197;SDS011;8715;51.010;6.812;2022-10-16T00:21:23;480.65;;;461.55;;
17197;SDS011;8715;51.010;6.812;2022-10-16T00:23:52;481.95;;;462.55;;
17197;SDS011;8715;51.010;6.812;2022-10-16T00:26:18;473.67;;;454.83;;
17197;SDS011;8715;51.010;6.812;2022-10-16T00:28:47;480.55;;;461.70;;
17197;SDS011;8715;51.010;6.812;2022-10-16T00:31:14;487.20;;;468.23;;
17197;SDS011;8715;51.010;6.812;2022-10-16T00:33:40;477.70;;;459.20;;
17197;SDS011;8715;51.010;6.812;2022-10-16T00:36:06;478.77;;;459.52;;
17197;SDS011;8715;51.010;6.812;2022-10-16T00:38:32;484.95;;;465.73;;
17197;SDS011;8715;51.010;6.812;2022-10-16T00:40:58;467.90;;;449.65;;
17197;SDS011;8715;51.010;6.812;2022-10-16T00:43:37;465.83;;;447.08;;
17197;SDS011;8715;51.010;6.812;2022-10-16T00:46:08;481.50;;;462.52;;
17197;SDS011;8715;51.010;6.812;2022-10-16T00:48:37;466.15;;;448.08;;
17197;SDS011;8715;51.010;6.812;2022-10-16T00:51:03;493.13;;;473.90;;
17197;SDS011;8715;51.010;6.812;2022-10-16T00:53:29;466.85;;;448.02;;
17197;SDS011;8715;51.010;6.812;2022-10-16T00:55:55;478.42;;;459.35;;
17197;SDS011;8715;51.010;6.812;2022-10-16T00:58:20;479.05;;;460.23;;
17197;SDS011;8715;51.010;6.812;2022-10-16T01:00:46;488.77;;;469.52;;
17197;SDS011;8715;51.010;6.812;2022-10-16T01:03:25;484.20;;;464.77;;
17197;SDS011;8715;51.010;6.812;2022-10-16T01:06:18;482.75;;;463.75;;
17197;SDS011;8715;51.010;6.812;2022-10-16T01:11:24;482.92;;;463.45;;
17197;SDS011;8715;51.010;6.812;2022-10-16T01:13:55;481.20;;;462.10;;
17197;SDS011;8715;51.010;6.812;2022-10-16T01:16:29;478.65;;;460.33;;
17197;SDS011;8715;51.010;6.812;2022-10-16T01:19:03;465.45;;;447.00;;
17197;SDS011;8715;51.010;6.812;2022-10-16T01:21:35;474.15;;;455.15;;
17197;SDS011;8715;51.010;6.812;2022-10-16T01:27:11;495.50;;;475.50;;
17197;SDS011;8715;51.010;6.812;2022-10-16T01:34:59;453.17;;;435.90;;
17197;SDS011;8715;51.010;6.812;2022-10-16T01:37:35;465.95;;;448.00;;
17197;SDS011;8715;51.010;6.812;2022-10-16T01:40:05;446.60;;;428.38;;
17197;SDS011;8715;51.010;6.812;2022-10-16T01:42:35;453.52;;;435.65;;
17197;SDS011;8715;51.010;6.812;2022-10-16T01:45:03;492.00;;;473.00;;
17197;SDS011;8715;51.010;6.812;2022-10-16T01:47:39;463.60;;;445.45;;
17197;SDS011;8715;51.010;6.812;2022-10-16T01:50:06;485.75;;;466.90;;
17197;SDS011;8715;51.010;6.812;2022-10-16T01:52:33;470.42;;;451.75;;
17197;SDS011;8715;51.010;6.812;2022-10-16T01:55:00;480.75;;;461.73;;
17197;SDS011;8715;51.010;6.812;2022-10-16T01:57:28;487.55;;;468.25;;
17197;SDS011;8715;51.010;6.812;2022-10-16T01:59:56;473.70;;;454.77;;
17197;SDS011;8715;51.010;6.812;2022-10-16T02:02:23;489.90;;;470.77;;
17197;SDS011;8715;51.010;6.812;2022-10-16T02:04:54;479.35;;;460.65;;
17197;SDS011;8715;51.010;6.812;2022-10-16T02:07:23;481.35;;;462.15;;
17197;SDS011;8715;51.010;6.812;2022-10-16T02:09:49;508.48;;;488.30;;
17197;SDS011;8715;51.010;6.812;2022-10-16T02:12:15;508.05;;;488.10;;
17197;SDS011;8715;51.010;6.812;2022-10-16T02:14:53;481.33;;;462.50;;
17197;SDS011;8715;51.010;6.812;2022-10-16T02:17:19;475.08;;;456.40;;
17197;SDS011;8715;51.010;6.812;2022-10-16T02:19:45;497.33;;;477.77;;
17197;SDS011;8715;51.010;6.812;2022-10-16T02:22:25;474.23;;;455.75;;
17197;SDS011;8715;51.010;6.812;2022-10-16T02:32:45;484.15;;;465.15;;
17197;SDS011;8715;51.010;6.812;2022-10-16T02:35:13;486.38;;;467.40;;
17197;SDS011;8715;51.010;6.812;2022-10-16T02:37:39;500.00;;;479.50;;
17197;SDS011;8715;51.010;6.812;2022-10-16T02:40:05;495.48;;;475.85;;
17197;SDS011;8715;51.010;6.812;2022-10-16T02:42:34;496.92;;;477.30;;
17197;SDS011;8715;51.010;6.812;2022-10-16T02:45:01;504.25;;;483.50;;
17197;SDS011;8715;51.010;6.812;2022-10-16T02:47:26;476.75;;;457.13;;
17197;SDS011;8715;51.010;6.812;2022-10-16T02:49:51;485.60;;;466.57;;
17197;SDS011;8715;51.010;6.812;2022-10-16T02:52:17;495.80;;;476.13;;
17197;SDS011;8715;51.010;6.812;2022-10-16T02:54:42;487.38;;;468.20;;
17197;SDS011;8715;51.010;6.812;2022-10-16T02:57:07;488.80;;;469.20;;
17197;SDS011;8715;51.010;6.812;2022-10-16T02:59:33;491.83;;;472.87;;
17197;SDS011;8715;51.010;6.812;2022-10-16T03:01:58;482.40;;;463.10;;
17197;SDS011;8715;51.010;6.812;2022-10-16T03:04:23;478.17;;;458.60;;
17197;SDS011;8715;51.010;6.812;2022-10-16T03:06:49;475.43;;;456.47;;
17197;SDS011;8715;51.010;6.812;2022-10-16T03:09:14;485.60;;;466.83;;
17197;SDS011;8715;51.010;6.812;2022-10-16T03:11:39;479.42;;;460.65;;
17197;SDS011;8715;51.010;6.812;2022-10-16T03:14:05;483.83;;;464.73;;
17197;SDS011;8715;51.010;6.812;2022-10-16T03:16:30;483.65;;;464.20;;
17197;SDS011;8715;51.010;6.812;2022-10-16T03:18:55;486.97;;;467.60;;
17197;SDS011;8715;51.010;6.812;2022-10-16T03:21:21;479.15;;;459.95;;
17197;SDS011;8715;51.010;6.812;2022-10-16T03:23:47;486.27;;;466.53;;
17197;SDS011;8715;51.010;6.812;2022-10-16T03:26:12;488.50;;;469.25;;
17197;SDS011;8715;51.010;6.812;2022-10-16T03:28:39;478.08;;;458.92;;
17197;SDS011;8715;51.010;6.812;2022-10-16T03:31:04;486.13;;;466.90;;
17197;SDS011;8715;51.010;6.812;2022-10-16T03:33:31;488.67;;;469.60;;
17197;SDS011;8715;51.010;6.812;2022-10-16T03:35:57;468.17;;;449.52;;
17197;SDS011;8715;51.010;6.812;2022-10-16T03:38:22;503.30;;;483.50;;
17197;SDS011;8715;51.010;6.812;2022-10-16T03:40:48;479.10;;;460.20;;
17197;SDS011;8715;51.010;6.812;2022-10-16T03:43:13;470.97;;;452.03;;
17197;SDS011;8715;51.010;6.812;2022-10-16T03:45:38;484.13;;;464.93;;
17197;SDS011;8715;51.010;6.812;2022-10-16T03:48:04;479.98;;;461.55;;
17197;SDS011;8715;51.010;6.812;2022-10-16T03:50:30;501.35;;;481.13;;
17197;SDS011;8715;51.010;6.812;2022-10-16T03:52:55;475.70;;;456.90;;
17197;SDS011;8715;51.010;6.812;2022-10-16T03:55:21;476.73;;;457.87;;
17197;SDS011;8715;51.010;6.812;2022-10-16T03:57:46;485.57;;;466.40;;
17197;SDS011;8715;51.010;6.812;2022-10-16T04:00:11;476.37;;;457.67;;
17197;SDS011;8715;51.010;6.812;2022-10-16T04:02:37;470.13;;;451.80;;
17197;SDS011;8715;51.010;6.812;2022-10-16T04:05:03;465.73;;;447.25;;
17197;SDS011;8715;51.010;6.812;2022-10-16T04:07:28;495.88;;;476.63;;
17197;SDS011;8715;51.010;6.812;2022-10-16T04:09:54;485.83;;;466.27;;
17197;SDS011;8715;51.010;6.812;2022-10-16T04:12:19;489.70;;;470.38;;
17197;SDS011;8715;51.010;6.812;2022-10-16T04:14:44;473.85;;;455.30;;
17197;SDS011;8715;51.010;6.812;2022-10-16T04:17:10;460.57;;;442.53;;
17197;SDS011;8715;51.010;6.812;2022-10-16T04:19:35;460.13;;;442.17;;
17197;SDS011;8715;51.010;6.812;2022-10-16T04:22:00;482.10;;;462.47;;
17197;SDS011;8715;51.010;6.812;2022-10-16T04:24:26;492.20;;;472.92;;
17197;SDS011;8715;51.010;6.812;2022-10-16T04:26:51;472.50;;;453.93;;
17197;SDS011;8715;51.010;6.812;2022-10-16T04:29:17;474.00;;;455.38;;
17197;SDS011;8715;51.010;6.812;2022-10-16T04:31:42;484.67;;;465.55;;
17197;SDS011;8715;51.010;6.812;2022-10-16T04:34:08;489.70;;;470.53;;
17197;SDS011;8715;51.010;6.812;2022-10-16T04:36:34;479.90;;;461.02;;
17197;SDS011;8715;51.010;6.812;2022-10-16T04:38:59;471.57;;;453.00;;
17197;SDS011;8715;51.010;6.812;2022-10-16T04:41:24;471.60;;;452.60;;
17197;SDS011;8715;51.010;6.812;2022-10-16T04:43:50;464.33;;;446.30;;
17197;SDS011;8715;51.010;6.812;2022-10-16T04:46:15;491.33;;;472.08;;
17197;SDS011;8715;51.010;6.812;2022-10-16T04:48:40;486.65;;;467.85;;
17197;SDS011;8715;51.010;6.812;2022-10-16T04:51:06;454.73;;;436.53;;
17197;SDS011;8715;51.010;6.812;2022-10-16T04:53:31;469.83;;;451.10;;
17197;SDS011;8715;51.010;6.812;2022-10-16T04:55:56;486.77;;;467.20;;
17197;SDS011;8715;51.010;6.812;2022-10-16T04:58:22;483.25;;;463.73;;
17197;SDS011;8715;51.010;6.812;2022-10-16T05:00:48;480.95;;;461.15;;
17197;SDS011;8715;51.010;6.812;2022-10-16T05:03:13;479.98;;;461.15;;
17197;SDS011;8715;51.010;6.812;2022-10-16T05:05:42;470.58;;;451.25;;
17197;SDS011;8715;51.010;6.812;2022-10-16T05:08:11;471.40;;;449.60;;
17197;SDS011;8715;51.010;6.812;2022-10-16T05:10:37;470.70;;;451.35;;
17197;SDS011;8715;51.010;6.812;2022-10-16T05:13:02;471.38;;;452.75;;
17197;SDS011;8715;51.010;6.812;2022-10-16T05:15:28;494.70;;;475.23;;
17197;SDS011;8715;51.010;6.812;2022-10-16T05:17:53;469.20;;;450.90;;
17197;SDS011;8715;51.010;6.812;2022-10-16T05:20:19;477.88;;;459.17;;
17197;SDS011;8715;51.010;6.812;2022-10-16T05:22:44;462.15;;;443.98;;
17197;SDS011;8715;51.010;6.812;2022-10-16T05:25:10;475.60;;;453.87;;
17197;SDS011;8715;51.010;6.812;2022-10-16T05:27:35;481.93;;;463.00;;
17197;SDS011;8715;51.010;6.812;2022-10-16T05:30:00;446.43;;;428.63;;
17197;SDS011;8715;51.010;6.812;2022-10-16T05:32:27;461.57;;;442.80;;
17197;SDS011;8715;51.010;6.812;2022-10-16T05:34:53;533.58;;;513.00;;
17197;SDS011;8715;51.010;6.812;2022-10-16T05:37:18;475.40;;;456.13;;
17197;SDS011;8715;51.010;6.812;2022-10-16T05:39:43;463.37;;;444.70;;
17197;SDS011;8715;51.010;6.812;2022-10-16T05:42:09;494.40;;;472.58;;
17197;SDS011;8715;51.010;6.812;2022-10-16T05:44:34;472.03;;;453.53;;
17197;SDS011;8715;51.010;6.812;2022-10-16T05:46:59;467.20;;;448.70;;
17197;SDS011;8715;51.010;6.812;2022-10-16T05:49:25;471.40;;;452.55;;
17197;SDS011;8715;51.010;6.812;2022-10-16T05:51:50;470.58;;;451.70;;
17197;SDS011;8715;51.010;6.812;2022-10-16T05:54:17;478.60;;;459.80;;
17197;SDS011;8715;51.010;6.812;2022-10-16T05:56:42;468.02;;;449.73;;
17197;SDS011;8715;51.010;6.812;2022-10-16T05:59:08;489.35;;;469.98;;
17197;SDS011;8715;51.010;6.812;2022-10-16T06:01:35;471.55;;;452.20;;
17197;SDS011;8715;51.010;6.812;2022-10-16T06:04:00;485.60;;;466.17;;
17197;SDS011;8715;51.010;6.812;2022-10-16T06:06:27;455.10;;;436.30;;
17197;SDS011;8715;51.010;6.812;2022-10-16T06:08:53;483.20;;;463.92;;
17197;SDS011;8715;51.010;6.812;2022-10-16T06:11:21;468.88;;;449.95;;
17197;SDS011;8715;51.010;6.812;2022-10-16T06:13:51;481.38;;;462.40;;
17197;SDS011;8715;51.010;6.812;2022-10-16T06:16:17;484.77;;;463.58;;
17197;SDS011;8715;51.010;6.812;2022-10-16T06:18:43;476.70;;;458.50;;
17197;SDS011;8715;51.010;6.812;2022-10-16T06:21:16;478.25;;;459.42;;
17197;SDS011;8715;51.010;6.812;2022-10-16T06:23:42;469.05;;;450.20;;
17197;SDS011;8715;51.010;6.812;2022-10-16T06:26:13;496.38;;;476.85;;
17197;SDS011;8715;51.010;6.812;2022-10-16T06:28:40;477.60;;;458.85;;
17197;SDS011;8715;51.010;6.812;2022-10-16T06:31:06;468.88;;;449.95;;
17197;SDS011;8715;51.010;6.812;2022-10-16T06:33:34;496.45;;;474.30;;
17197;SDS011;8715;51.010;6.812;2022-10-16T06:36:01;459.20;;;440.05;;
17197;SDS011;8715;51.010;6.812;2022-10-16T06:38:28;472.42;;;453.75;;
17197;SDS011;8715;51.010;6.812;2022-10-16T06:40:54;486.70;;;466.05;;
17197;SDS011;8715;51.010;6.812;2022-10-16T06:43:19;481.08;;;461.90;;
17197;SDS011;8715;51.010;6.812;2022-10-16T06:45:50;492.70;;;472.70;;
17197;SDS011;8715;51.010;6.812;2022-10-16T06:48:19;489.08;;;469.45;;
17197;SDS011;8715;51.010;6.812;2022-10-16T06:50:54;501.63;;;481.08;;
17197;SDS011;8715;51.010;6.812;2022-10-16T06:53:21;482.80;;;463.35;;
17197;SDS011;8715;51.010;6.812;2022-10-16T06:55:46;487.13;;;467.67;;
17197;SDS011;8715;51.010;6.812;2022-10-16T06:58:11;491.07;;;471.53;;
17197;SDS011;8715;51.010;6.812;2022-10-16T07:00:37;485.70;;;466.83;;
17197;SDS011;8715;51.010;6.812;2022-10-16T07:03:02;499.83;;;479.73;;
17197;SDS011;8715;51.010;6.812;2022-10-16T07:05:27;531.13;;;509.73;;
17197;SDS011;8715;51.010;6.812;2022-10-16T07:07:53;507.47;;;487.27;;
17197;SDS011;8715;51.010;6.812;2022-10-16T07:10:19;521.38;;;500.83;;
17197;SDS011;8715;51.010;6.812;2022-10-16T07:12:44;512.65;;;492.60;;
17197;SDS011;8715;51.010;6.812;2022-10-16T07:15:10;518.33;;;497.63;;
17197;SDS011;8715;51.010;6.812;2022-10-16T07:17:35;511.10;;;490.80;;
17197;SDS011;8715;51.010;6.812;2022-10-16T07:20:01;519.83;;;499.17;;
17197;SDS011;8715;51.010;6.812;2022-10-16T07:22:27;512.03;;;491.60;;
17197;SDS011;8715;51.010;6.812;2022-10-16T07:24:53;512.97;;;492.55;;
17197;SDS011;8715;51.010;6.812;2022-10-16T07:27:18;511.70;;;491.70;;
17197;SDS011;8715;51.010;6.812;2022-10-16T07:29:44;501.67;;;481.57;;
17197;SDS011;8715;51.010;6.812;2022-10-16T07:32:09;517.13;;;496.85;;
17197;SDS011;8715;51.010;6.812;2022-10-16T07:34:34;506.57;;;486.47;;
17197;SDS011;8715;51.010;6.812;2022-10-16T07:37:00;506.35;;;486.23;;
17197;SDS011;8715;51.010;6.812;2022-10-16T07:39:33;517.27;;;496.53;;
17197;SDS011;8715;51.010;6.812;2022-10-16T07:41:58;541.25;;;519.38;;
17197;SDS011;8715;51.010;6.812;2022-10-16T07:44:23;495.13;;;474.80;;
17197;SDS011;8715;51.010;6.812;2022-10-16T07:46:49;508.80;;;488.53;;
17197;SDS011;8715;51.010;6.812;2022-10-16T07:49:14;514.37;;;493.60;;
17197;SDS011;8715;51.010;6.812;2022-10-16T07:51:39;505.73;;;485.63;;
17197;SDS011;8715;51.010;6.812;2022-10-16T07:54:05;515.03;;;494.20;;
17197;SDS011;8715;51.010;6.812;2022-10-16T07:56:30;499.17;;;479.30;;
17197;SDS011;8715;51.010;6.812;2022-10-16T07:58:57;523.20;;;502.85;;
17197;SDS011;8715;51.010;6.812;2022-10-16T08:01:22;517.57;;;497.07;;
17197;SDS011;8715;51.010;6.812;2022-10-16T08:03:48;527.25;;;506.52;;
17197;SDS011;8715;51.010;6.812;2022-10-16T08:06:15;517.35;;;497.08;;
17197;SDS011;8715;51.010;6.812;2022-10-16T08:08:41;525.03;;;504.27;;
17197;SDS011;8715;51.010;6.812;2022-10-16T08:11:07;528.60;;;506.65;;
17197;SDS011;8715;51.010;6.812;2022-10-16T08:13:33;523.83;;;503.08;;
17197;SDS011;8715;51.010;6.812;2022-10-16T08:16:00;526.30;;;505.40;;
17197;SDS011;8715;51.010;6.812;2022-10-16T08:18:26;565.60;;;543.15;;
17197;SDS011;8715;51.010;6.812;2022-10-16T08:20:55;543.47;;;521.83;;
17197;SDS011;8715;51.010;6.812;2022-10-16T08:23:22;548.17;;;526.78;;
17197;SDS011;8715;51.010;6.812;2022-10-16T08:25:47;549.60;;;527.72;;
17197;SDS011;8715;51.010;6.812;2022-10-16T08:28:13;552.53;;;530.73;;
17197;SDS011;8715;51.010;6.812;2022-10-16T08:30:38;567.33;;;544.33;;
17197;SDS011;8715;51.010;6.812;2022-10-16T08:33:03;539.75;;;518.35;;
17197;SDS011;8715;51.010;6.812;2022-10-16T08:35:29;561.47;;;539.67;;
17197;SDS011;8715;51.010;6.812;2022-10-16T08:37:54;559.53;;;537.38;;
17197;SDS011;8715;51.010;6.812;2022-10-16T08:40:22;551.67;;;529.88;;
17197;SDS011;8715;51.010;6.812;2022-10-16T08:51:01;567.75;;;544.85;;
17197;SDS011;8715;51.010;6.812;2022-10-16T08:53:29;567.85;;;544.80;;
17197;SDS011;8715;51.010;6.812;2022-10-16T08:55:56;571.60;;;549.17;;
17197;SDS011;8715;51.010;6.812;2022-10-16T08:58:26;582.22;;;559.15;;
17197;SDS011;8715;51.010;6.812;2022-10-16T09:00:55;588.10;;;564.83;;
17197;SDS011;8715;51.010;6.812;2022-10-16T09:16:54;581.15;;;558.47;;
17197;SDS011;8715;51.010;6.812;2022-10-16T09:21:56;589.38;;;565.75;;
17197;SDS011;8715;51.010;6.812;2022-10-16T09:24:25;589.78;;;565.35;;
17197;SDS011;8715;51.010;6.812;2022-10-16T09:26:50;588.00;;;564.28;;
17197;SDS011;8715;51.010;6.812;2022-10-16T09:29:17;593.85;;;570.38;;
17197;SDS011;8715;51.010;6.812;2022-10-16T09:31:45;592.17;;;568.75;;
17197;SDS011;8715;51.010;6.812;2022-10-16T09:34:14;604.15;;;579.75;;
17197;SDS011;8715;51.010;6.812;2022-10-16T09:36:52;587.40;;;563.42;;
17197;SDS011;8715;51.010;6.812;2022-10-16T09:39:18;599.58;;;574.70;;
17197;SDS011;8715;51.010;6.812;2022-10-16T09:41:44;600.60;;;576.30;;
17197;SDS011;8715;51.010;6.812;2022-10-16T09:44:28;598.03;;;572.83;;
17197;SDS011;8715;51.010;6.812;2022-10-16T09:47:04;599.17;;;575.25;;
17197;SDS011;8715;51.010;6.812;2022-10-16T09:52:26;599.50;;;575.55;;
17197;SDS011;8715;51.010;6.812;2022-10-16T09:54:56;604.80;;;580.10;;
17197;SDS011;8715;51.010;6.812;2022-10-16T09:57:49;602.15;;;577.97;;
17197;SDS011;8715;51.010;6.812;2022-10-16T10:00:15;606.20;;;581.28;;
17197;SDS011;8715;51.010;6.812;2022-10-16T10:02:41;604.28;;;579.20;;
17197;SDS011;8715;51.010;6.812;2022-10-16T10:05:17;604.77;;;580.57;;
17197;SDS011;8715;51.010;6.812;2022-10-16T10:07:52;600.92;;;577.17;;
17197;SDS011;8715;51.010;6.812;2022-10-16T10:10:21;608.08;;;583.55;;
17197;SDS011;8715;51.010;6.812;2022-10-16T10:12:47;617.45;;;592.03;;
17197;SDS011;8715;51.010;6.812;2022-10-16T10:15:13;602.07;;;577.70;;
17197;SDS011;8715;51.010;6.812;2022-10-16T10:17:51;618.55;;;593.28;;
17197;SDS011;8715;51.010;6.812;2022-10-16T10:20:30;613.33;;;588.80;;
17197;SDS011;8715;51.010;6.812;2022-10-16T10:22:59;621.10;;;595.65;;
17197;SDS011;8715;51.010;6.812;2022-10-16T10:25:27;615.28;;;590.63;;
17197;SDS011;8715;51.010;6.812;2022-10-16T10:31:21;606.85;;;581.67;;
17197;SDS011;8715;51.010;6.812;2022-10-16T10:39:50;615.45;;;589.85;;
17197;SDS011;8715;51.010;6.812;2022-10-16T10:44:56;622.78;;;597.20;;
17197;SDS011;8715;51.010;6.812;2022-10-16T10:50:47;639.53;;;611.05;;
17197;SDS011;8715;51.010;6.812;2022-10-16T10:53:12;610.90;;;586.33;;
17197;SDS011;8715;51.010;6.812;2022-10-16T10:55:49;621.50;;;596.00;;
17197;SDS011;8715;51.010;6.812;2022-10-16T11:01:14;619.25;;;594.10;;
17197;SDS011;8715;51.010;6.812;2022-10-16T11:06:24;614.38;;;589.78;;
17197;SDS011;8715;51.010;6.812;2022-10-16T11:09:00;620.08;;;594.97;;
17197;SDS011;8715;51.010;6.812;2022-10-16T11:14:18;620.08;;;594.63;;
17197;SDS011;8715;51.010;6.812;2022-10-16T11:16:50;623.88;;;598.30;;
17197;SDS011;8715;51.010;6.812;2022-10-16T11:22:32;613.85;;;589.03;;
17197;SDS011;8715;51.010;6.812;2022-10-16T11:30:20;622.67;;;597.63;;
17197;SDS011;8715;51.010;6.812;2022-10-16T11:32:50;622.92;;;598.08;;
17197;SDS011;8715;51.010;6.812;2022-10-16T11:35:19;619.40;;;594.13;;
17197;SDS011;8715;51.010;6.812;2022-10-16T11:37:47;616.13;;;591.22;;
17197;SDS011;8715;51.010;6.812;2022-10-16T11:43:22;626.03;;;600.75;;
17197;SDS011;8715;51.010;6.812;2022-10-16T11:45:50;616.05;;;591.13;;
17197;SDS011;8715;51.010;6.812;2022-10-16T11:48:20;626.08;;;600.40;;
17197;SDS011;8715;51.010;6.812;2022-10-16T11:50:53;624.70;;;599.28;;
17197;SDS011;8715;51.010;6.812;2022-10-16T11:56:04;630.38;;;604.53;;
17197;SDS011;8715;51.010;6.812;2022-10-16T12:01:19;625.95;;;599.75;;
17197;SDS011;8715;51.010;6.812;2022-10-16T12:08:54;616.45;;;591.00;;
17197;SDS011;8715;51.010;6.812;2022-10-16T12:14:03;630.05;;;604.33;;
17197;SDS011;8715;51.010;6.812;2022-10-16T12:16:32;622.22;;;596.72;;
17197;SDS011;8715;51.010;6.812;2022-10-16T12:19:10;632.15;;;606.28;;
17197;SDS011;8715;51.010;6.812;2022-10-16T12:21:41;626.90;;;601.53;;
17197;SDS011;8715;51.010;6.812;2022-10-16T12:24:07;631.90;;;605.22;;
17197;SDS011;8715;51.010;6.812;2022-10-16T12:26:46;630.70;;;605.03;;
17197;SDS011;8715;51.010;6.812;2022-10-16T12:31:49;631.03;;;605.33;;
17197;SDS011;8715;51.010;6.812;2022-10-16T12:34:20;629.45;;;603.55;;
17197;SDS011;8715;51.010;6.812;2022-10-16T12:36:46;641.00;;;614.38;;
17197;SDS011;8715;51.010;6.812;2022-10-16T12:39:20;669.95;;;642.30;;
17197;SDS011;8715;51.010;6.812;2022-10-16T12:41:47;632.67;;;606.67;;
17197;SDS011;8715;51.010;6.812;2022-10-16T12:44:24;643.40;;;616.37;;
17197;SDS011;8715;51.010;6.812;2022-10-16T12:46:51;632.30;;;606.28;;
17197;SDS011;8715;51.010;6.812;2022-10-16T12:49:29;631.78;;;605.65;;
17197;SDS011;8715;51.010;6.812;2022-10-16T12:51:56;635.40;;;608.60;;
17197;SDS011;8715;51.010;6.812;2022-10-16T12:54:45;632.25;;;605.25;;
17197;SDS011;8715;51.010;6.812;2022-10-16T13:17:30;642.90;;;616.58;;
17197;SDS011;8715;51.010;6.812;2022-10-16T13:25:40;660.00;;;632.00;;
17197;SDS011;8715;51.010;6.812;2022-10-16T13:28:11;643.28;;;616.72;;
17197;SDS011;8715;51.010;6.812;2022-10-16T13:30:42;680.80;;;652.40;;
17197;SDS011;8715;51.010;6.812;2022-10-16T13:33:24;636.90;;;610.72;;
17197;SDS011;8715;51.010;6.812;2022-10-16T13:35:58;645.65;;;618.13;;
17197;SDS011;8715;51.010;6.812;2022-10-16T13:38:28;632.90;;;606.58;;
17197;SDS011;8715;51.010;6.812;2022-10-16T13:48:43;646.90;;;620.17;;
17197;SDS011;8715;51.010;6.812;2022-10-16T13:51:12;633.88;;;607.78;;
17197;SDS011;8715;51.010;6.812;2022-10-16T13:53:38;632.42;;;606.13;;
17197;SDS011;8715;51.010;6.812;2022-10-16T13:56:05;634.60;;;607.92;;
17197;SDS011;8715;51.010;6.812;2022-10-16T13:58:32;626.65;;;600.03;;
17197;SDS011;8715;51.010;6.812;2022-10-16T14:00:58;642.58;;;616.00;;
17197;SDS011;8715;51.010;6.812;2022-10-16T14:03:26;632.75;;;607.00;;
17197;SDS011;8715;51.010;6.812;2022-10-16T14:05:53;646.20;;;619.33;;
17197;SDS011;8715;51.010;6.812;2022-10-16T14:08:20;618.63;;;593.55;;
17197;SDS011;8715;51.010;6.812;2022-10-16T14:10:48;625.58;;;600.05;;
17197;SDS011;8715;51.010;6.812;2022-10-16T14:13:17;637.83;;;611.88;;
17197;SDS011;8715;51.010;6.812;2022-10-16T14:15:46;629.30;;;603.65;;
17197;SDS011;8715;51.010;6.812;2022-10-16T14:18:20;628.08;;;602.03;;
17197;SDS011;8715;51.010;6.812;2022-10-16T14:20:46;623.88;;;598.30;;
17197;SDS011;8715;51.010;6.812;2022-10-16T14:23:20;639.63;;;613.35;;
17197;SDS011;8715;51.010;6.812;2022-10-16T14:25:53;674.50;;;646.00;;
17197;SDS011;8715;51.010;6.812;2022-10-16T14:28:22;627.72;;;601.97;;
17197;SDS011;8715;51.010;6.812;2022-10-16T14:30:55;628.67;;;602.75;;
17197;SDS011;8715;51.010;6.812;2022-10-16T14:36:01;637.47;;;611.35;;
17197;SDS011;8715;51.010;6.812;2022-10-16T14:38:28;635.83;;;610.00;;
17197;SDS011;8715;51.010;6.812;2022-10-16T14:40:54;644.45;;;618.20;;
17197;SDS011;8715;51.010;6.812;2022-10-16T14:43:39;632.85;;;607.20;;
17197;SDS011;8715;51.010;6.812;2022-10-16T14:46:12;636.47;;;609.95;;
17197;SDS011;8715;51.010;6.812;2022-10-16T14:49:21;636.97;;;610.75;;
17197;SDS011;8715;51.010;6.812;2022-10-16T14:51:30;636.15;;;610.30;;
17197;SDS011;8715;51.010;6.812;2022-10-16T14:53:55;632.10;;;605.63;;
17197;SDS011;8715;51.010;6.812;2022-10-16T14:56:22;623.13;;;597.92;;
17197;SDS011;8715;51.010;6.812;2022-10-16T14:58:49;624.05;;;598.38;;
17197;SDS011;8715;51.010;6.812;2022-10-16T15:01:16;634.97;;;609.15;;
17197;SDS011;8715;51.010;6.812;2022-10-16T15:03:41;635.33;;;608.73;;
17197;SDS011;8715;51.010;6.812;2022-10-16T15:06:10;637.07;;;610.27;;
17197;SDS011;8715;51.010;6.812;2022-10-16T15:08:36;626.20;;;600.40;;
17197;SDS011;8715;51.010;6.812;2022-10-16T15:11:02;631.88;;;606.30;;
17197;SDS011;8715;51.010;6.812;2022-10-16T15:13:27;632.67;;;606.23;;
17197;SDS011;8715;51.010;6.812;2022-10-16T15:15:53;629.73;;;604.03;;
17197;SDS011;8715;51.010;6.812;2022-10-16T15:18:18;631.17;;;605.03;;
17197;SDS011;8715;51.010;6.812;2022-10-16T15:20:48;629.90;;;604.28;;
17197;SDS011;8715;51.010;6.812;2022-10-16T15:23:15;634.70;;;608.60;;
17197;SDS011;8715;51.010;6.812;2022-10-16T15:25:51;618.03;;;593.00;;
17197;SDS011;8715;51.010;6.812;2022-10-16T15:28:18;634.75;;;608.08;;
17197;SDS011;8715;51.010;6.812;2022-10-16T15:30:44;623.58;;;598.17;;
17197;SDS011;8715;51.010;6.812;2022-10-16T15:33:17;647.40;;;621.38;;
17197;SDS011;8715;51.010;6.812;2022-10-16T15:35:46;638.03;;;611.80;;
17197;SDS011;8715;51.010;6.812;2022-10-16T15:38:12;632.80;;;607.00;;
17197;SDS011;8715;51.010;6.812;2022-10-16T15:40:40;633.92;;;608.05;;
17197;SDS011;8715;51.010;6.812;2022-10-16T15:43:06;630.20;;;604.28;;
17197;SDS011;8715;51.010;6.812;2022-10-16T15:45:31;625.90;;;599.83;;
17197;SDS011;8715;51.010;6.812;2022-10-16T15:47:56;623.75;;;597.83;;
17197;SDS011;8715;51.010;6.812;2022-10-16T15:50:24;627.28;;;600.85;;
17197;SDS011;8715;51.010;6.812;2022-10-16T15:52:49;624.55;;;598.70;;
17197;SDS011;8715;51.010;6.812;2022-10-16T15:55:15;662.67;;;635.40;;
17197;SDS011;8715;51.010;6.812;2022-10-16T15:57:40;625.72;;;599.88;;
17197;SDS011;8715;51.010;6.812;2022-10-16T16:00:08;623.15;;;595.75;;
17197;SDS011;8715;51.010;6.812;2022-10-16T16:02:38;625.97;;;600.00;;
17197;SDS011;8715;51.010;6.812;2022-10-16T16:05:04;636.08;;;609.50;;
17197;SDS011;8715;51.010;6.812;2022-10-16T16:07:34;630.58;;;604.88;;
17197;SDS011;8715;51.010;6.812;2022-10-16T16:10:00;624.72;;;598.92;;
17197;SDS011;8715;51.010;6.812;2022-10-16T16:12:26;622.55;;;597.00;;
17197;SDS011;8715;51.010;6.812;2022-10-16T16:14:52;622.10;;;596.58;;
17197;SDS011;8715;51.010;6.812;2022-10-16T16:17:17;618.87;;;593.47;;
17197;SDS011;8715;51.010;6.812;2022-10-16T16:19:43;634.58;;;606.30;;
17197;SDS011;8715;51.010;6.812;2022-10-16T16:22:08;609.65;;;584.78;;
17197;SDS011;8715;51.010;6.812;2022-10-16T16:24:33;620.80;;;595.20;;
17197;SDS011;8715;51.010;6.812;2022-10-16T16:26:59;612.03;;;586.65;;
17197;SDS011;8715;51.010;6.812;2022-10-16T16:29:24;617.38;;;592.00;;